createdAt,value
2022-12-26T00:04:51.149Z,99.73
2022-12-26T00:09:46.839Z,99.64
2022-12-26T00:14:40.720Z,98.85
2022-12-26T00:19:33.972Z,99.27
2022-12-26T00:24:27.191Z,96.46
2022-12-26T00:29:23.805Z,94.79
2022-12-26T00:34:18.581Z,94.78
2022-12-26T00:39:12.146Z,95.58
2022-12-26T00:44:05.491Z,96.30
2022-12-26T00:49:00.312Z,96.91
2022-12-26T00:53:53.519Z,96.39
2022-12-26T00:58:46.887Z,96.66
2022-12-26T01:03:41.082Z,97.01
2022-12-26T01:08:36.112Z,98.17
2022-12-26T01:13:29.296Z,100.00
2022-12-26T01:18:23.086Z,100.00
2022-12-26T01:23:16.644Z,97.28
2022-12-26T01:28:11.178Z,95.97
2022-12-26T01:33:04.360Z,97.28
2022-12-26T01:37:58.813Z,97.67
2022-12-26T01:42:52.111Z,98.19
2022-12-26T01:47:50.611Z,97.95
2022-12-26T01:52:48.841Z,99.47
2022-12-26T01:57:45.496Z,99.82
2022-12-26T02:02:53.169Z,99.58
2022-12-26T02:07:48.353Z,99.86
2022-12-26T02:12:42.249Z,99.57
2022-12-26T02:17:35.644Z,99.58
2022-12-26T02:23:08.114Z,99.61
2022-12-26T02:28:24.263Z,100.00
2022-12-26T02:33:40.739Z,100.00
2022-12-26T02:38:42.002Z,100.00
2022-12-26T02:43:42.407Z,100.00
2022-12-26T02:48:46.858Z,99.18
2022-12-26T02:54:06.845Z,99.08
2022-12-26T02:59:54.148Z,98.91
2022-12-26T03:04:59.344Z,99.31
2022-12-26T03:10:15.135Z,98.80
2022-12-26T03:15:12.206Z,98.82
2022-12-26T03:20:12.364Z,99.31
2022-12-26T03:25:26.877Z,99.28
2022-12-26T03:30:37.442Z,98.88
2022-12-26T03:35:35.122Z,99.49
2022-12-26T03:40:59.116Z,99.72
2022-12-26T03:46:20.417Z,99.48
2022-12-26T03:51:38.440Z,99.34
2022-12-26T03:56:54.462Z,99.27
2022-12-26T04:02:08.080Z,99.97
2022-12-26T04:07:28.891Z,99.96
2022-12-26T04:12:42.571Z,100.00
2022-12-26T04:18:03.874Z,99.91
2022-12-26T04:23:25.084Z,100.00
2022-12-26T04:28:35.811Z,99.92
2022-12-26T04:33:53.726Z,100.00
2022-12-26T04:39:09.853Z,100.00
2022-12-26T04:44:09.361Z,99.63
2022-12-26T04:49:23.612Z,99.86
2022-12-26T04:54:19.203Z,99.84
2022-12-26T04:59:12.364Z,100.00
2022-12-26T05:04:22.864Z,100.00
2022-12-26T05:09:36.271Z,100.00
2022-12-26T05:14:31.711Z,100.00
2022-12-26T05:19:49.985Z,99.79
2022-12-26T05:25:06.594Z,100.00
2022-12-26T05:30:00.083Z,100.00
2022-12-26T05:34:53.292Z,100.00
2022-12-26T05:39:47.831Z,100.00
2022-12-26T05:44:41.218Z,100.00
2022-12-26T05:49:34.517Z,100.00
2022-12-26T05:54:27.663Z,100.00
2022-12-26T05:59:22.318Z,100.00
2022-12-26T06:04:15.818Z,100.00
2022-12-26T06:09:09.079Z,100.00
2022-12-26T06:14:02.380Z,100.00
2022-12-26T06:18:57.280Z,100.00
2022-12-26T06:23:51.653Z,100.00
2022-12-26T06:28:46.841Z,100.00
2022-12-26T06:33:39.973Z,100.00
2022-12-26T06:38:35.085Z,100.00
2022-12-26T06:43:40.243Z,100.00
2022-12-26T06:48:39.478Z,100.00
2022-12-26T06:53:42.736Z,100.00
2022-12-26T06:58:37.798Z,100.00
2022-12-26T07:03:31.031Z,100.00
2022-12-26T07:08:24.192Z,100.00
2022-12-26T07:13:19.079Z,100.00
2022-12-26T07:18:12.322Z,100.00
2022-12-26T07:23:13.251Z,100.00
2022-12-26T07:28:06.502Z,100.00
2022-12-26T07:33:01.128Z,100.00
2022-12-26T07:37:54.310Z,100.00
2022-12-26T07:42:47.504Z,100.00
2022-12-26T07:47:40.781Z,100.00
2022-12-26T07:52:35.464Z,100.00
2022-12-26T07:57:48.076Z,100.00
2022-12-26T08:02:42.332Z,100.00
2022-12-26T08:07:39.176Z,100.00
2022-12-26T08:12:36.690Z,100.00
2022-12-26T08:17:31.632Z,100.00
2022-12-26T08:22:26.221Z,100.00
2022-12-26T08:27:26.824Z,100.00
2022-12-26T08:32:20.173Z,100.00
2022-12-26T08:37:13.561Z,100.00
2022-12-26T08:42:06.966Z,100.00
2022-12-26T08:47:03.929Z,100.00
2022-12-26T08:51:58.220Z,100.00
2022-12-26T08:56:51.706Z,100.00
2022-12-26T09:01:49.618Z,100.00
2022-12-26T09:06:44.399Z,99.92
2022-12-26T09:11:37.674Z,96.55
2022-12-26T09:16:39.347Z,93.85
2022-12-26T09:21:35.345Z,89.39
2022-12-26T09:26:30.545Z,86.88
2022-12-26T09:31:27.325Z,82.11
2022-12-26T09:36:23.311Z,80.43
2022-12-26T09:41:48.649Z,75.33
2022-12-26T09:46:50.118Z,72.94
2022-12-26T09:51:50.238Z,71.24
2022-12-26T09:57:04.006Z,69.89
2022-12-26T10:01:59.134Z,71.32
2022-12-26T10:07:01.837Z,69.61
2022-12-26T10:12:10.914Z,69.81
2022-12-26T10:17:11.743Z,69.10
2022-12-26T10:22:15.603Z,69.31
2022-12-26T10:27:16.754Z,67.51
2022-12-26T10:32:16.380Z,66.12
2022-12-26T10:37:17.005Z,65.85
2022-12-26T10:42:24.775Z,65.22
2022-12-26T10:47:26.066Z,62.74
2022-12-26T10:52:23.000Z,62.98
2022-12-26T10:57:19.587Z,63.38
2022-12-26T11:02:17.484Z,63.32
2022-12-26T11:07:13.249Z,63.06
2022-12-26T11:12:07.523Z,63.55
2022-12-26T11:23:56.472Z,61.97
2022-12-26T11:35:58.976Z,63.60
2022-12-26T11:41:58.744Z,61.06
2022-12-26T11:47:10.152Z,63.16
2022-12-26T11:52:38.954Z,66.00
2022-12-26T11:57:56.900Z,68.39
2022-12-26T12:02:58.462Z,71.38
2022-12-26T12:08:30.311Z,74.17
2022-12-26T12:13:39.553Z,75.78
2022-12-26T12:18:45.061Z,78.09
2022-12-26T12:24:14.635Z,78.33
2022-12-26T12:29:28.617Z,78.58
2022-12-26T12:34:36.259Z,79.69
2022-12-26T12:39:41.369Z,79.09
2022-12-26T12:44:56.665Z,79.07
2022-12-26T12:50:01.148Z,79.98
2022-12-26T12:55:21.600Z,79.61
2022-12-26T13:00:21.756Z,79.88
2022-12-26T13:05:23.901Z,79.80
2022-12-26T13:10:24.275Z,79.55
2022-12-26T13:15:28.277Z,79.54
2022-12-26T13:20:28.515Z,79.99
2022-12-26T13:25:26.157Z,79.92
2022-12-26T13:30:20.069Z,80.18
2022-12-26T13:35:48.643Z,81.10
2022-12-26T13:40:57.549Z,81.71
2022-12-26T13:45:56.694Z,82.27
2022-12-26T13:50:55.699Z,82.43
2022-12-26T13:55:59.775Z,82.72
2022-12-26T14:01:07.044Z,83.12
2022-12-26T14:06:40.474Z,83.30
2022-12-26T14:11:51.674Z,83.95
2022-12-26T14:16:52.072Z,84.40
2022-12-26T14:21:58.467Z,85.24
2022-12-26T14:27:01.197Z,85.75
2022-12-26T14:32:10.523Z,85.97
2022-12-26T14:37:14.383Z,85.46
2022-12-26T14:42:39.572Z,86.14
2022-12-26T14:47:42.623Z,86.12
2022-12-26T14:52:44.687Z,86.32
2022-12-26T14:57:50.218Z,87.95
2022-12-26T15:02:54.141Z,88.13
2022-12-26T15:08:14.547Z,88.88
2022-12-26T15:13:44.524Z,89.88
2022-12-26T15:19:16.628Z,90.13
2022-12-26T15:30:22.982Z,92.34
2022-12-26T15:35:25.562Z,92.82
2022-12-26T15:40:24.277Z,94.04
2022-12-26T15:45:36.404Z,94.21
2022-12-26T15:50:35.286Z,94.31
2022-12-26T15:55:43.891Z,95.24
2022-12-26T16:00:41.185Z,95.19
2022-12-26T16:05:42.811Z,95.12
2022-12-26T16:10:37.241Z,94.72
2022-12-26T16:15:33.298Z,94.17
2022-12-26T16:20:50.770Z,95.01
2022-12-26T16:25:51.194Z,94.87
2022-12-26T16:30:44.542Z,95.29
2022-12-26T16:35:41.865Z,96.13
2022-12-26T16:40:42.718Z,96.33
2022-12-26T16:45:39.579Z,95.99
2022-12-26T16:50:33.720Z,96.36
2022-12-26T16:55:37.432Z,97.11
2022-12-26T17:00:32.920Z,97.66
2022-12-26T17:05:30.234Z,97.11
2022-12-26T17:10:27.169Z,97.27
2022-12-26T17:15:25.519Z,96.78
2022-12-26T17:20:37.613Z,97.55
2022-12-26T17:25:44.421Z,98.11
2022-12-26T17:30:45.908Z,100.00
2022-12-26T17:36:25.279Z,100.00
2022-12-26T17:40:55.418Z,99.09
2022-12-26T17:45:52.577Z,97.60
2022-12-26T17:50:48.417Z,97.16
2022-12-26T17:55:43.056Z,96.66
2022-12-26T18:00:36.365Z,97.00
2022-12-26T18:05:31.325Z,97.45
2022-12-26T18:10:26.642Z,97.20
2022-12-26T18:15:21.109Z,97.64
2022-12-26T18:20:19.985Z,97.41
2022-12-26T18:25:17.627Z,97.50
2022-12-26T18:30:17.737Z,98.48
2022-12-26T18:35:11.386Z,98.64
2022-12-26T18:40:05.439Z,98.36
2022-12-26T18:45:00.232Z,98.33
2022-12-26T18:49:53.534Z,98.04
2022-12-26T18:54:46.915Z,98.49
2022-12-26T18:59:40.679Z,98.78
2022-12-26T19:04:35.284Z,99.68
2022-12-26T19:09:28.560Z,99.83
2022-12-26T19:14:23.626Z,99.42
2022-12-26T19:19:17.008Z,97.92
2022-12-26T19:24:16.151Z,97.66
2022-12-26T19:29:10.931Z,97.44
2022-12-26T19:34:04.224Z,97.79
2022-12-26T19:38:57.720Z,97.83
2022-12-26T19:43:58.006Z,98.87
2022-12-26T19:48:51.279Z,99.57
2022-12-26T19:53:45.481Z,99.70
2022-12-26T19:58:38.967Z,99.69
2022-12-26T20:03:33.648Z,99.79
2022-12-26T20:08:27.034Z,100.00
2022-12-26T20:13:20.539Z,100.00
2022-12-26T20:18:16.456Z,100.00
2022-12-26T20:23:12.706Z,100.00
2022-12-26T20:28:06.230Z,100.00
2022-12-26T20:32:59.767Z,100.00
2022-12-26T20:37:56.207Z,100.00
2022-12-26T20:42:53.410Z,100.00
2022-12-26T20:47:46.865Z,100.00
2022-12-26T20:52:40.140Z,100.00
2022-12-26T20:57:33.531Z,100.00
2022-12-26T21:02:28.402Z,100.00
2022-12-26T21:07:21.768Z,100.00
2022-12-26T21:12:15.334Z,100.00
2022-12-26T21:17:08.666Z,99.77
2022-12-26T21:22:03.683Z,99.30
2022-12-26T21:26:57.323Z,99.49
2022-12-26T21:31:53.867Z,100.00
2022-12-26T21:37:08.403Z,100.00
2022-12-26T21:42:07.093Z,100.00
2022-12-26T21:47:01.630Z,100.00
2022-12-26T21:51:55.061Z,99.25
2022-12-26T21:56:51.136Z,98.28
2022-12-26T22:01:47.655Z,98.73
2022-12-26T22:06:42.220Z,100.00
2022-12-26T22:11:53.067Z,100.00
2022-12-26T22:16:47.878Z,100.00
2022-12-26T22:21:41.099Z,100.00
2022-12-26T22:26:37.137Z,100.00
2022-12-26T22:31:33.135Z,99.53
2022-12-26T22:36:29.179Z,98.97
2022-12-26T22:41:22.856Z,99.38
2022-12-26T22:46:16.623Z,99.96
2022-12-26T22:51:10.819Z,100.00
2022-12-26T22:56:07.788Z,100.00
2022-12-26T23:01:01.923Z,100.00
2022-12-26T23:05:56.172Z,100.00
2022-12-26T23:10:50.813Z,100.00
2022-12-26T23:15:52.448Z,100.00
2022-12-26T23:21:05.811Z,100.00
2022-12-26T23:26:01.305Z,100.00
2022-12-26T23:30:57.168Z,100.00
2022-12-26T23:35:50.600Z,100.00
2022-12-26T23:40:43.851Z,100.00
2022-12-26T23:45:37.009Z,100.00
2022-12-26T23:50:32.651Z,100.00
2022-12-26T23:55:25.980Z,100.00
